Time;durP1;ratioP1;P1;durP2;ratioP2;P2;SDS_P1;SDS_P2;PMS_P1;PMS_P2;Temp;Humidity;BMP_temperature;BMP_pressure;BME280_temperature;BME280_humidity;BME280_pressure;Samples;Min_cycle;Max_cycle;Signal;HPM_P1;HPM_P2
2022/03/12 00:01:18;;;;;;;9.43;6.37;;;6.70;1.00;7.00;100738.00;;;;5001363;28;20488;-77
2022/03/12 00:03:48;;;;;;;8.07;6.60;;;6.50;1.00;6.90;100734.00;;;;5003906;28;20457;-79
2022/03/12 00:06:18;;;;;;;8.87;6.67;;;6.60;1.00;7.00;100746.00;;;;5004269;28;20469;-78
2022/03/12 00:08:47;;;;;;;11.50;6.67;;;6.50;1.00;7.00;100754.00;;;;5010857;28;20454;-77
2022/03/12 00:11:20;;;;;;;9.83;6.60;;;6.50;1.00;7.00;100770.00;;;;5003459;28;20943;-77
2022/03/12 00:13:53;;;;;;;6.67;5.97;;;6.50;1.00;7.00;100771.00;;;;5007352;28;20467;-77
2022/03/12 00:16:26;;;;;;;9.17;7.00;;;6.50;1.00;7.10;100747.00;;;;5000731;28;20479;-76
2022/03/12 00:18:58;;;;;;;6.77;6.07;;;6.50;1.00;7.10;100762.00;;;;5002487;28;20446;-76
2022/03/12 00:21:35;;;;;;;6.97;5.87;;;6.60;1.00;7.00;100762.00;;;;5003678;28;20470;-76
2022/03/12 00:24:05;;;;;;;7.70;6.60;;;6.50;1.00;7.00;100771.00;;;;5003157;28;20450;-76
2022/03/12 00:26:37;;;;;;;6.83;5.73;;;6.50;1.00;7.00;67809.00;;;;5005321;28;20510;-76
2022/03/12 00:29:14;;;;;;;10.13;7.43;;;6.50;1.00;6.90;100751.00;;;;5017628;28;20537;-76
2022/03/12 00:31:45;;;;;;;8.70;6.50;;;6.50;1.00;6.90;100770.00;;;;5020821;28;20464;-80
2022/03/12 00:34:17;;;;;;;8.13;6.37;;;6.50;1.00;6.90;100768.00;;;;5023363;28;21538;-80
2022/03/12 00:36:48;;;;;;;8.40;6.40;;;6.50;1.00;6.90;100794.00;;;;5027141;28;20489;-78
2022/03/12 00:39:17;;;;;;;9.83;5.70;;;6.50;1.00;6.90;100774.00;;;;5011442;28;20472;-77
2022/03/12 00:41:47;;;;;;;7.73;6.00;;;6.50;1.00;6.90;100742.00;;;;5004493;28;20446;-78
2022/03/12 00:44:17;;;;;;;9.10;5.80;;;6.50;1.00;7.00;100770.00;;;;4998509;28;20533;-80
2022/03/12 00:46:46;;;;;;;8.83;6.60;;;6.50;1.00;6.90;100786.00;;;;4995835;28;20560;-78
2022/03/12 00:49:14;;;;;;;6.97;6.27;;;6.50;1.00;6.90;100769.00;;;;4995815;28;20533;-79
2022/03/12 00:51:44;;;;;;;6.80;5.87;;;6.50;1.00;6.80;100744.00;;;;4994069;28;20993;-78
2022/03/12 00:54:13;;;;;;;8.90;6.17;;;6.50;1.00;6.70;100767.00;;;;4987996;28;20458;-78
2022/03/12 00:56:41;;;;;;;9.77;6.93;;;6.40;1.00;6.70;100740.00;;;;4996869;28;21025;-78
2022/03/12 00:59:10;;;;;;;7.50;6.50;;;6.30;1.00;6.80;100729.00;;;;4996592;28;20460;-77
2022/03/12 01:01:40;;;;;;;11.30;6.83;;;6.70;1.00;6.90;100764.00;;;;4996602;28;20551;-78
2022/03/12 01:04:08;;;;;;;9.63;6.97;;;6.40;1.00;6.90;100778.00;;;;4999607;28;20454;-78
2022/03/12 01:06:37;;;;;;;9.93;5.80;;;6.50;1.00;6.90;100776.00;;;;4997011;28;20485;-78
2022/03/12 01:09:06;;;;;;;10.97;6.33;;;6.50;1.00;6.80;100777.00;;;;4997820;28;20493;-80
2022/03/12 01:11:35;;;;;;;7.67;6.57;;;6.50;1.00;6.90;100787.00;;;;4995852;28;20462;-80
2022/03/12 01:14:03;;;;;;;7.97;7.17;;;6.50;1.00;6.80;100764.00;;;;5009751;28;20470;-78
2022/03/12 01:16:34;;;;;;;10.07;6.57;;;6.50;1.00;6.90;100785.00;;;;5009032;28;20474;-79
2022/03/12 01:19:04;;;;;;;8.87;7.50;;;6.50;1.00;6.90;100783.00;;;;4996321;28;20457;-79
2022/03/12 01:21:33;;;;;;;9.20;6.47;;;6.50;1.00;7.00;100777.00;;;;4996753;28;20470;-79
2022/03/12 01:24:01;;;;;;;10.67;6.40;;;6.60;1.00;6.90;100766.00;;;;4997317;28;20485;-77
2022/03/12 01:26:29;;;;;;;8.50;6.30;;;6.50;1.00;6.90;100790.00;;;;5007948;28;20462;-79
2022/03/12 01:28:58;;;;;;;8.17;6.70;;;6.50;1.00;6.80;100779.00;;;;5018456;28;20521;-79
2022/03/12 01:31:26;;;;;;;6.60;5.70;;;6.50;1.00;6.80;100786.00;;;;5019506;28;21516;-80
2022/03/12 01:33:54;;;;;;;8.17;6.00;;;6.40;1.00;6.70;100777.00;;;;5023356;28;20513;-79
2022/03/12 01:36:24;;;;;;;8.90;6.23;;;6.40;1.00;6.70;100789.00;;;;5014059;28;20468;-80
2022/03/12 01:38:55;;;;;;;12.50;6.73;;;6.40;1.00;6.70;100779.00;;;;5040754;28;20445;-79
2022/03/12 01:41:26;;;;;;;10.57;6.10;;;6.40;1.00;6.80;100783.00;;;;5024911;28;20447;-76
2022/03/12 01:43:57;;;;;;;9.20;6.30;;;6.80;1.00;6.70;100790.00;;;;5002940;28;20510;-77
2022/03/12 01:46:32;;;;;;;7.37;5.90;;;6.40;1.00;6.90;100777.00;;;;5003134;28;20466;-78
2022/03/12 01:49:07;;;;;;;9.30;6.00;;;6.50;1.00;6.90;100788.00;;;;5019007;28;21106;-77
2022/03/12 01:51:38;;;;;;;9.90;5.70;;;6.50;1.00;6.80;100788.00;;;;4998245;28;20480;-78
2022/03/12 01:54:07;;;;;;;6.47;5.70;;;6.50;1.00;6.80;100781.00;;;;4999923;28;20461;-76
2022/03/12 01:56:38;;;;;;;9.10;5.53;;;6.50;1.00;6.80;100784.00;;;;5006133;28;20842;-77
2022/03/12 01:59:07;;;;;;;11.07;6.67;;;6.60;1.00;6.80;100755.00;;;;5002517;28;20532;-78
2022/03/12 02:01:35;;;;;;;10.50;6.30;;;6.50;1.00;6.80;100764.00;;;;5011169;28;20902;-79
2022/03/12 02:04:07;;;;;;;9.07;6.20;;;6.50;1.00;6.80;100778.00;;;;5016944;28;20458;-79
2022/03/12 02:06:41;;;;;;;8.70;6.07;;;6.40;1.00;6.80;100780.00;;;;5019653;28;20478;-79
2022/03/12 02:09:14;;;;;;;6.83;5.40;;;6.40;1.00;6.70;100776.00;;;;5019931;28;20518;-79
2022/03/12 02:11:47;;;;;;;7.10;5.40;;;6.40;1.00;6.70;100781.00;;;;5021792;28;20450;-81
2022/03/12 02:14:19;;;;;;;7.03;5.53;;;6.60;1.00;6.70;100779.00;;;;5021457;28;20435;-79
2022/03/12 02:16:51;;;;;;;8.57;5.90;;;6.30;1.00;6.70;100778.00;;;;5033900;28;20486;-79
2022/03/12 02:19:21;;;;;;;7.10;5.93;;;6.40;1.00;6.70;100777.00;;;;5031967;28;21015;-76
2022/03/12 02:21:54;;;;;;;7.87;5.90;;;6.70;1.00;6.70;100784.00;;;;5020093;28;20479;-76
2022/03/12 02:24:26;;;;;;;7.03;5.20;;;6.60;1.00;6.80;100772.00;;;;5011164;28;20477;-76
2022/03/12 02:26:57;;;;;;;6.67;5.30;;;6.40;1.00;6.70;100773.00;;;;5000382;28;20485;-76
2022/03/12 02:29:26;;;;;;;7.80;5.33;;;6.40;1.00;6.80;100777.00;;;;5000521;28;20464;-76
2022/03/12 02:31:58;;;;;;;6.97;6.27;;;6.40;1.00;6.80;67751.00;;;;5014568;28;20457;-77
2022/03/12 02:34:30;;;;;;;6.33;5.23;;;6.40;1.00;6.70;100784.00;;;;4997924;28;20472;-78
2022/03/12 02:36:59;;;;;;;7.17;6.00;;;6.40;1.00;6.80;67754.00;;;;5010255;28;20580;-78
2022/03/12 02:39:30;;;;;;;8.63;5.40;;;6.50;1.00;6.80;100797.00;;;;4994671;28;20544;-78
2022/03/12 02:42:01;;;;;;;7.47;5.63;;;6.50;1.00;6.80;100791.00;;;;4993867;28;20457;-77
2022/03/12 02:44:29;;;;;;;8.23;6.50;;;6.50;1.00;6.90;100789.00;;;;5010855;28;20478;-77
2022/03/12 02:47:17;;;;;;;6.43;5.73;;;6.50;1.00;6.90;100758.00;;;;4995334;28;20481;-78
2022/03/12 02:49:52;;;;;;;7.90;5.43;;;6.60;1.00;6.80;100788.00;;;;4993900;28;20454;-77
2022/03/12 02:52:23;;;;;;;5.50;4.90;;;6.60;1.00;6.80;100789.00;;;;5002951;28;20454;-76
2022/03/12 02:54:53;;;;;;;9.07;6.03;;;6.50;1.00;6.80;100770.00;;;;4997575;28;20458;-80
2022/03/12 02:57:25;;;;;;;8.73;5.17;;;6.50;1.00;6.80;100797.00;;;;4999351;28;20480;-79
2022/03/12 02:59:55;;;;;;;8.57;5.33;;;6.50;1.00;6.80;100795.00;;;;4993115;28;20481;-78
2022/03/12 03:02:31;;;;;;;7.83;6.70;;;6.30;1.00;6.70;100800.00;;;;4996890;28;20545;-78
2022/03/12 03:04:59;;;;;;;8.90;6.10;;;6.40;1.00;6.80;100800.00;;;;4996090;28;20478;-77
2022/03/12 03:07:29;;;;;;;6.77;5.73;;;6.40;1.00;6.70;100797.00;;;;5002538;28;20485;-80
2022/03/12 03:09:58;;;;;;;7.73;6.10;;;6.40;1.00;6.70;100795.00;;;;5001323;28;20459;-78
2022/03/12 03:12:27;;;;;;;6.63;5.30;;;6.40;1.00;6.70;100788.00;;;;5018922;28;20453;-80
2022/03/12 03:14:55;;;;;;;7.50;5.90;;;6.40;1.00;6.80;100798.00;;;;5021653;28;20431;-79
2022/03/12 03:17:24;;;;;;;7.73;6.10;;;6.40;1.00;6.70;100792.00;;;;5007467;28;20482;-77
2022/03/12 03:19:53;;;;;;;6.80;5.80;;;6.70;1.00;6.70;100788.00;;;;4998504;28;20454;-76
2022/03/12 03:22:21;;;;;;;6.57;5.40;;;6.40;1.00;6.70;100811.00;;;;4997625;28;20451;-80
2022/03/12 03:24:49;;;;;;;8.73;5.53;;;6.40;1.00;6.60;100806.00;;;;4993128;28;20475;-77
2022/03/12 03:27:19;;;;;;;7.67;4.90;;;6.40;1.00;6.70;100822.00;;;;4994502;28;21006;-77
2022/03/12 03:29:47;;;;;;;7.70;5.60;;;6.40;1.00;6.70;100819.00;;;;4996031;28;20480;-76
2022/03/12 03:32:16;;;;;;;7.30;5.23;;;6.40;1.00;6.80;100823.00;;;;4993083;28;20466;-79
2022/03/12 03:34:44;;;;;;;7.33;5.63;;;6.40;1.00;6.80;100793.00;;;;4994843;28;20557;-78
2022/03/12 03:37:12;;;;;;;6.17;5.20;;;6.50;1.00;6.80;100837.00;;;;4992776;28;20478;-77
2022/03/12 03:39:41;;;;;;;7.30;5.23;;;6.50;1.00;6.80;100837.00;;;;4994464;28;20485;-78
2022/03/12 03:42:09;;;;;;;7.20;5.13;;;6.50;1.00;6.90;100844.00;;;;4983884;28;20449;-78
2022/03/12 03:44:39;;;;;;;7.93;5.90;;;6.50;1.00;6.80;100834.00;;;;4993314;28;20478;-77
2022/03/12 03:47:07;;;;;;;9.40;5.50;;;6.50;1.00;6.90;100818.00;;;;4992126;28;20482;-76
2022/03/12 03:49:36;;;;;;;7.67;5.43;;;6.60;1.00;6.90;100856.00;;;;4995768;28;20466;-78
2022/03/12 03:52:07;;;;;;;8.00;5.50;;;6.60;1.00;6.80;100845.00;;;;4995901;28;20464;-77
2022/03/12 03:54:36;;;;;;;7.57;5.77;;;6.50;1.00;6.80;100845.00;;;;5002098;28;20513;-76
2022/03/12 03:57:05;;;;;;;7.80;5.10;;;6.50;1.00;6.90;100850.00;;;;5016030;28;20507;-78
2022/03/12 03:59:33;;;;;;;6.27;4.80;;;6.50;1.00;6.70;100850.00;;;;4999655;28;20504;-78
2022/03/12 04:02:03;;;;;;;8.87;5.60;;;6.50;1.00;6.70;100853.00;;;;5003042;28;20472;-76
2022/03/12 04:04:35;;;;;;;6.10;5.00;;;6.50;1.00;6.70;100854.00;;;;5005695;28;20532;-78
2022/03/12 04:07:05;;;;;;;7.23;5.07;;;6.40;1.00;6.70;100864.00;;;;5016842;28;20984;-79
2022/03/12 04:09:33;;;;;;;5.53;5.03;;;6.40;1.00;6.70;100849.00;;;;5018993;28;20610;-78
2022/03/12 04:12:01;;;;;;;7.30;5.20;;;6.40;1.00;6.60;100851.00;;;;5020383;28;20477;-79
2022/03/12 04:14:29;;;;;;;9.70;5.90;;;6.30;1.00;6.50;100854.00;;;;5013932;28;20475;-78
2022/03/12 04:16:58;;;;;;;7.17;5.90;;;6.60;1.00;6.40;100871.00;;;;5019842;28;20509;-79
2022/03/12 04:19:30;;;;;;;8.53;5.70;;;6.20;1.00;6.30;100861.00;;;;5040636;28;21010;-77
2022/03/12 04:21:59;;;;;;;5.93;4.90;;;5.90;1.00;6.20;100847.00;;;;5002636;28;20497;-76
2022/03/12 04:24:28;;;;;;;7.67;5.87;;;5.90;1.00;6.20;100864.00;;;;4999884;28;20489;-76
2022/03/12 04:26:56;;;;;;;6.27;4.93;;;5.80;1.00;6.10;100873.00;;;;5003246;28;20478;-77
2022/03/12 04:29:24;;;;;;;10.77;5.40;;;5.80;1.00;6.00;100882.00;;;;5002607;28;20533;-77
2022/03/12 04:31:53;;;;;;;7.47;6.33;;;6.00;1.00;6.00;100880.00;;;;5005230;28;20458;-77
2022/03/12 04:34:21;;;;;;;6.70;5.60;;;5.70;1.00;5.90;100858.00;;;;5007642;28;20484;-77
2022/03/12 04:36:51;;;;;;;8.37;6.10;;;5.60;1.00;5.90;100882.00;;;;5007366;28;20569;-77
2022/03/12 04:39:20;;;;;;;6.90;5.43;;;5.60;1.00;5.80;100899.00;;;;5001275;28;20465;-77
2022/03/12 04:41:49;;;;;;;6.90;5.30;;;5.70;1.00;5.80;100900.00;;;;5008749;28;20457;-78
2022/03/12 04:44:20;;;;;;;7.70;5.70;;;5.50;1.00;5.80;100898.00;;;;5000616;28;20469;-76
2022/03/12 04:46:48;;;;;;;6.50;5.50;;;5.40;1.00;5.70;100888.00;;;;4998467;28;20501;-79
2022/03/12 04:49:17;;;;;;;7.43;5.30;;;5.40;1.00;5.70;100892.00;;;;4997571;28;20462;-76
2022/03/12 04:51:45;;;;;;;6.37;5.63;;;5.30;1.00;5.70;100883.00;;;;4999619;28;20489;-76
2022/03/12 04:54:15;;;;;;;7.87;5.37;;;5.30;1.00;5.60;100891.00;;;;4995753;28;20556;-75
2022/03/12 04:56:44;;;;;;;8.30;6.07;;;5.20;1.00;5.50;100896.00;;;;4994812;28;20497;-75
2022/03/12 04:59:13;;;;;;;6.10;5.20;;;5.10;1.00;5.50;100907.00;;;;4990039;28;21570;-75
2022/03/12 05:01:42;;;;;;;7.83;5.37;;;5.10;1.00;5.50;100891.00;;;;4995097;28;20464;-76
2022/03/12 05:04:10;;;;;;;6.97;5.23;;;5.00;1.00;5.40;100910.00;;;;5003896;28;20478;-75
2022/03/12 05:06:39;;;;;;;8.50;5.10;;;5.00;1.00;5.50;100893.00;;;;4989943;28;20486;-77
2022/03/12 05:09:07;;;;;;;7.07;5.57;;;5.00;1.00;5.50;100913.00;;;;4994324;28;20450;-76
2022/03/12 05:11:38;;;;;;;10.33;5.67;;;5.10;1.00;5.40;100913.00;;;;4991747;28;20951;-76
2022/03/12 05:14:10;;;;;;;8.27;5.53;;;5.00;1.00;5.40;100916.00;;;;4993407;28;20877;-75
2022/03/12 05:16:38;;;;;;;6.20;4.83;;;5.00;1.00;5.30;100907.00;;;;4990876;28;20557;-75
2022/03/12 05:19:06;;;;;;;5.97;5.33;;;4.90;1.00;5.30;100910.00;;;;4987216;28;20538;-75
2022/03/12 05:21:35;;;;;;;7.20;5.10;;;4.70;1.00;5.30;100906.00;;;;4988818;28;20477;-75
2022/03/12 05:24:04;;;;;;;7.10;5.80;;;4.90;1.00;5.30;100913.00;;;;4994138;28;20865;-76
2022/03/12 05:26:32;;;;;;;7.53;5.70;;;4.90;1.00;5.30;100905.00;;;;5007523;28;20496;-75
2022/03/12 05:29:05;;;;;;;7.97;4.90;;;4.80;1.00;5.20;100905.00;;;;4997032;28;20445;-76
2022/03/12 05:31:34;;;;;;;6.63;4.70;;;4.90;1.00;5.20;100908.00;;;;4991450;28;20530;-75
2022/03/12 05:34:02;;;;;;;7.40;6.10;;;4.80;1.00;5.10;100902.00;;;;4991754;28;20486;-76
2022/03/12 05:36:30;;;;;;;6.57;5.17;;;4.80;1.00;5.20;100914.00;;;;4988168;28;20490;-76
2022/03/12 05:38:59;;;;;;;7.37;5.90;;;4.80;1.00;5.20;100916.00;;;;4989720;28;20920;-76
2022/03/12 05:41:29;;;;;;;6.00;4.90;;;4.80;1.00;5.20;100923.00;;;;4989984;28;20528;-76
2022/03/12 05:43:57;;;;;;;7.60;5.13;;;4.80;1.00;5.20;100929.00;;;;4999531;28;20470;-75
2022/03/12 05:46:27;;;;;;;8.37;5.50;;;4.80;1.00;5.10;100916.00;;;;5009745;28;20496;-75
2022/03/12 05:48:56;;;;;;;8.80;5.23;;;4.80;1.00;5.20;100895.00;;;;5022823;28;20462;-76
2022/03/12 05:51:24;;;;;;;5.80;5.00;;;4.80;1.00;5.20;100924.00;;;;5012643;28;20453;-75
2022/03/12 05:53:53;;;;;;;6.20;5.03;;;4.80;1.00;5.10;100925.00;;;;5026320;28;20480;-76
2022/03/12 05:56:21;;;;;;;8.07;5.80;;;4.80;1.00;5.10;100920.00;;;;5002052;28;20471;-76
2022/03/12 05:58:49;;;;;;;6.60;5.37;;;4.70;1.00;5.10;100921.00;;;;5001011;28;20506;-76
2022/03/12 06:01:18;;;;;;;6.23;4.80;;;4.70;1.00;5.10;100913.00;;;;5001778;28;20459;-77
2022/03/12 06:03:47;;;;;;;6.00;5.00;;;4.70;1.00;5.10;100922.00;;;;4999153;28;20512;-78
2022/03/12 06:06:16;;;;;;;6.67;5.50;;;4.70;1.00;5.20;100934.00;;;;4994817;28;20581;-79
2022/03/12 06:08:44;;;;;;;7.07;5.57;;;4.80;1.00;5.20;100932.00;;;;4986468;28;20519;-75
2022/03/12 06:11:15;;;;;;;7.57;5.60;;;4.80;1.00;5.20;100935.00;;;;4992460;28;20968;-76
2022/03/12 06:13:57;;;;;;;6.50;5.17;;;4.80;1.00;5.30;100923.00;;;;4990993;28;20461;-75
2022/03/12 06:16:26;;;;;;;7.97;5.57;;;4.80;1.00;5.30;100913.00;;;;4993871;28;20553;-75
2022/03/12 06:18:55;;;;;;;5.70;4.63;;;4.90;1.00;5.30;100922.00;;;;4996909;28;20463;-76
2022/03/12 06:21:24;;;;;;;8.73;6.03;;;4.90;1.00;5.30;100917.00;;;;4989143;28;20469;-74
2022/03/12 06:23:54;;;;;;;6.27;5.00;;;4.90;1.00;5.20;100929.00;;;;4985811;28;20463;-76
2022/03/12 06:26:26;;;;;;;6.50;5.40;;;4.90;1.00;5.40;100936.00;;;;4989156;28;20578;-75
2022/03/12 06:28:56;;;;;;;7.10;5.20;;;4.90;1.00;5.40;100931.00;;;;4989093;28;20447;-76
2022/03/12 06:31:24;;;;;;;6.87;4.90;;;5.00;1.00;5.50;100944.00;;;;4989035;28;20967;-76
2022/03/12 06:33:54;;;;;;;7.70;5.60;;;5.10;1.00;5.60;100935.00;;;;4996529;28;20455;-75
2022/03/12 06:36:23;;;;;;;9.60;5.30;;;5.10;1.00;5.60;100954.00;;;;4992587;28;20479;-76
2022/03/12 06:38:52;;;;;;;6.60;5.73;;;5.10;1.00;5.90;100952.00;;;;5004517;28;20446;-76
2022/03/12 06:41:21;;;;;;;7.80;5.47;;;5.30;1.00;5.90;100938.00;;;;4987925;28;20469;-77
2022/03/12 06:43:50;;;;;;;6.00;4.73;;;5.50;1.00;6.00;100940.00;;;;4994726;28;20962;-76
2022/03/12 06:46:19;;;;;;;9.33;5.63;;;5.60;1.00;6.10;100936.00;;;;4994694;28;20989;-76
2022/03/12 06:48:47;;;;;;;6.63;5.10;;;5.60;1.00;5.90;100943.00;;;;4995653;28;21538;-76
2022/03/12 06:51:16;;;;;;;6.07;4.93;;;5.70;1.00;6.30;100946.00;;;;5020265;28;20458;-76
2022/03/12 06:53:45;;;;;;;8.50;5.30;;;6.10;1.00;6.30;100947.00;;;;5012051;28;20472;-76
2022/03/12 06:56:14;;;;;;;6.70;5.63;;;5.80;1.00;6.40;100959.00;;;;5010381;28;20484;-77
2022/03/12 06:58:42;;;;;;;7.47;5.80;;;6.10;1.00;6.40;100940.00;;;;4994818;28;20451;-76
2022/03/12 07:01:11;;;;;;;8.57;5.70;;;5.90;1.00;6.40;100943.00;;;;4991853;28;20470;-77
2022/03/12 07:03:40;;;;;;;8.17;6.20;;;5.90;1.00;6.50;100938.00;;;;4989993;28;20564;-77
2022/03/12 07:06:09;;;;;;;9.20;5.40;;;6.00;1.00;6.50;100944.00;;;;4992965;28;20513;-76
2022/03/12 07:08:39;;;;;;;7.80;5.27;;;6.10;1.00;6.70;100971.00;;;;4990783;28;20462;-76
2022/03/12 07:11:10;;;;;;;7.93;5.47;;;6.20;1.00;6.80;100959.00;;;;4992902;28;20871;-76
2022/03/12 07:13:38;;;;;;;9.87;6.20;;;6.40;1.00;6.80;100954.00;;;;5001552;28;20471;-76
2022/03/12 07:16:07;;;;;;;6.13;5.50;;;6.40;1.00;7.00;100922.00;;;;4993415;28;20489;-77
2022/03/12 07:18:35;;;;;;;6.40;5.50;;;6.50;1.00;6.90;100947.00;;;;4999957;28;20506;-76
2022/03/12 07:21:04;;;;;;;11.53;6.60;;;6.50;1.00;6.90;100949.00;;;;4991599;28;20472;-78
2022/03/12 07:23:33;;;;;;;8.40;6.30;;;6.50;1.00;6.90;100946.00;;;;5002734;28;20464;-76
2022/03/12 07:26:01;;;;;;;6.40;5.37;;;6.50;1.00;6.80;100961.00;;;;4991421;28;20500;-76
2022/03/12 07:28:32;;;;;;;7.33;5.90;;;6.80;1.00;6.90;100950.00;;;;4991457;28;21090;-77
2022/03/12 07:31:02;;;;;;;8.33;6.67;;;6.40;1.00;6.90;100957.00;;;;4991068;28;20470;-76
2022/03/12 07:33:30;;;;;;;7.90;5.70;;;6.80;1.00;7.00;100954.00;;;;4994704;28;20453;-77
2022/03/12 07:35:58;;;;;;;7.23;5.60;;;6.60;1.00;7.10;100962.00;;;;4987986;28;20483;-76
2022/03/12 07:38:27;;;;;;;6.80;5.60;;;6.70;1.00;7.10;100935.00;;;;4994282;28;20462;-77
2022/03/12 07:40:55;;;;;;;9.27;6.50;;;6.70;1.00;7.10;100964.00;;;;4996193;28;20451;-76
2022/03/12 07:43:24;;;;;;;10.60;5.70;;;6.70;1.00;7.10;100959.00;;;;5014994;28;20458;-76
2022/03/12 07:45:54;;;;;;;8.73;5.50;;;7.00;1.00;7.30;100974.00;;;;5005747;28;21027;-77
2022/03/12 07:48:22;;;;;;;8.77;6.57;;;6.80;1.00;7.40;100966.00;;;;5002729;28;21094;-76
2022/03/12 07:51:07;;;;;;;6.77;5.27;;;6.90;1.00;7.50;100920.00;;;;4991915;28;20450;-77
2022/03/12 07:53:36;;;;;;;8.43;6.70;;;7.00;1.00;7.40;100923.00;;;;4995408;28;20469;-76
2022/03/12 07:56:06;;;;;;;9.20;5.37;;;7.10;1.00;7.60;100951.00;;;;4994553;28;20494;-75
2022/03/12 07:58:34;;;;;;;6.83;5.47;;;7.10;1.00;7.70;100963.00;;;;5008137;28;20462;-76
2022/03/12 08:01:05;;;;;;;7.97;6.47;;;7.30;1.00;7.80;100952.00;;;;5011300;28;20466;-76
2022/03/12 08:03:35;;;;;;;12.60;10.23;;;7.30;1.00;7.90;100964.00;;;;5030190;28;20481;-76
2022/03/12 08:06:05;;;;;;;6.47;5.17;;;7.50;1.00;8.10;100939.00;;;;5016193;28;20501;-76
2022/03/12 08:08:34;;;;;;;8.63;5.40;;;7.60;1.00;8.00;100954.00;;;;5011913;28;20625;-76
2022/03/12 08:13:50;;;;;;;6.90;5.87;;;7.80;1.00;8.40;100976.00;;;;4985501;28;20467;-77
2022/03/12 08:16:20;;;;;;;7.23;5.10;;;7.90;1.00;8.50;100983.00;;;;4993010;28;20520;-78
2022/03/12 08:18:49;;;;;;;7.10;5.70;;;8.10;1.00;8.60;100951.00;;;;5005758;28;21157;-78
2022/03/12 08:21:17;;;;;;;7.20;5.87;;;8.20;1.00;8.50;100981.00;;;;4996629;28;20496;-77
2022/03/12 08:23:46;;;;;;;10.73;5.77;;;8.10;1.00;8.50;100979.00;;;;4989379;28;20459;-78
2022/03/12 08:26:15;;;;;;;7.00;5.43;;;8.20;1.00;8.70;100974.00;;;;5002604;28;20570;-75
2022/03/12 08:28:43;;;;;;;8.13;5.70;;;8.30;1.00;8.80;100978.00;;;;5008118;28;20515;-77
2022/03/12 08:31:13;;;;;;;7.33;5.40;;;8.70;1.00;9.00;100981.00;;;;5014126;28;20464;-76
2022/03/12 08:33:43;;;;;;;6.27;5.30;;;8.50;1.00;9.00;100934.00;;;;5018370;28;20518;-76
2022/03/12 08:36:11;;;;;;;9.40;5.13;;;9.00;1.00;9.00;100975.00;;;;5025459;28;20439;-77
2022/03/12 08:38:40;;;;;;;8.67;5.77;;;8.60;1.00;9.10;100959.00;;;;5031681;28;20451;-77
2022/03/12 08:41:15;;;;;;;6.20;5.17;;;8.70;1.00;9.20;100985.00;;;;5022795;28;20494;-77
2022/03/12 08:43:44;;;;;;;8.50;5.77;;;8.80;1.00;9.30;100985.00;;;;5004614;28;20517;-76
2022/03/12 08:46:13;;;;;;;8.17;7.20;;;9.20;1.00;9.30;100992.00;;;;5022442;28;21077;-76
2022/03/12 08:48:43;;;;;;;6.70;5.47;;;8.90;1.00;9.30;100977.00;;;;5007158;28;20459;-76
2022/03/12 08:51:12;;;;;;;6.60;5.60;;;9.00;1.00;9.40;100992.00;;;;4995049;28;20458;-76
2022/03/12 08:53:41;;;;;;;7.73;5.90;;;9.00;1.00;9.40;100964.00;;;;4994027;28;20462;-77
2022/03/12 08:56:09;;;;;;;8.13;5.50;;;9.10;1.00;9.50;100984.00;;;;4990985;28;20509;-77
2022/03/12 08:58:39;;;;;;;7.90;6.10;;;9.10;1.00;9.50;100984.00;;;;5000165;28;20467;-76
2022/03/12 09:01:08;;;;;;;6.80;5.83;;;9.20;1.00;9.60;100997.00;;;;5002985;28;20446;-77
2022/03/12 09:03:38;;;;;;;6.70;5.90;;;9.30;1.00;9.70;100985.00;;;;4996280;28;20459;-77
2022/03/12 09:06:08;;;;;;;8.13;6.10;;;9.30;1.00;9.80;100974.00;;;;4992576;28;20481;-77
2022/03/12 09:08:37;;;;;;;11.10;7.13;;;9.40;1.00;9.80;100975.00;;;;4999214;28;20463;-76
2022/03/12 09:11:05;;;;;;;6.67;5.97;;;9.50;1.00;9.80;100998.00;;;;4995762;28;20466;-77
2022/03/12 09:13:34;;;;;;;6.60;5.83;;;9.60;1.00;9.80;100965.00;;;;5009440;28;20453;-75
2022/03/12 09:16:05;;;;;;;8.50;6.50;;;9.50;1.00;9.90;100978.00;;;;5009744;28;20470;-78
2022/03/12 09:18:34;;;;;;;8.77;6.03;;;9.60;1.00;10.00;100976.00;;;;5001484;28;20497;-81
2022/03/12 09:21:02;;;;;;;8.40;6.60;;;9.70;1.00;10.10;100979.00;;;;5018843;28;21555;-77
2022/03/12 09:23:33;;;;;;;8.20;6.93;;;9.80;1.00;10.00;100979.00;;;;5016773;28;20457;-77
2022/03/12 09:26:02;;;;;;;10.30;6.80;;;9.80;1.00;10.10;100979.00;;;;5003777;28;21380;-81
2022/03/12 09:28:30;;;;;;;10.10;6.90;;;9.80;1.00;10.20;100981.00;;;;5023234;28;20478;-77
2022/03/12 09:31:00;;;;;;;8.63;7.07;;;9.90;1.00;10.20;100961.00;;;;5025359;28;20450;-79
2022/03/12 09:33:29;;;;;;;11.27;6.50;;;10.00;1.00;10.20;100958.00;;;;5027778;28;20520;-78
2022/03/12 09:35:58;;;;;;;8.40;6.13;;;10.10;1.00;10.50;100969.00;;;;5022907;28;20462;-83
2022/03/12 09:38:27;;;;;;;7.60;6.33;;;10.20;1.00;10.60;100964.00;;;;5023388;28;20459;-80
2022/03/12 09:40:56;;;;;;;9.57;6.60;;;10.30;1.00;10.80;100977.00;;;;5022146;28;20459;-78
2022/03/12 09:43:25;;;;;;;9.33;5.90;;;10.50;1.00;10.80;100973.00;;;;5033506;28;20477;-77
2022/03/12 09:45:53;;;;;;;7.93;6.37;;;10.60;1.00;10.80;100952.00;;;;5030172;28;20470;-78
2022/03/12 09:48:22;;;;;;;10.27;7.03;;;10.70;1.00;11.00;100973.00;;;;5015580;28;20546;-79
2022/03/12 09:50:51;;;;;;;10.10;7.00;;;10.70;1.00;10.90;100963.00;;;;5018942;28;20494;-77
2022/03/12 09:53:19;;;;;;;7.67;6.87;;;10.80;1.00;11.00;100967.00;;;;5004581;28;20497;-76
2022/03/12 09:55:48;;;;;;;8.13;6.87;;;10.80;1.00;11.20;100945.00;;;;5001197;28;20537;-78
2022/03/12 09:58:18;;;;;;;9.40;7.07;;;11.00;1.00;11.20;100944.00;;;;5004486;28;20462;-77
2022/03/12 10:00:47;;;;;;;6.83;6.13;;;11.00;1.00;11.20;100963.00;;;;5004124;28;20483;-78
2022/03/12 10:03:15;;;;;;;9.80;6.57;;;11.00;1.00;11.20;100967.00;;;;5005159;28;20454;-77
2022/03/12 10:05:44;;;;;;;8.17;6.83;;;11.00;1.00;11.30;100969.00;;;;5003135;28;20477;-76
2022/03/12 10:08:12;;;;;;;8.73;6.57;;;11.00;1.00;11.30;100959.00;;;;5002741;28;20487;-78
2022/03/12 10:10:41;;;;;;;8.43;6.73;;;11.20;1.00;11.40;100938.00;;;;5002350;28;20446;-77
2022/03/12 10:13:10;;;;;;;7.73;6.30;;;11.30;1.00;11.60;100947.00;;;;5003686;28;20482;-77
2022/03/12 10:15:40;;;;;;;8.77;6.43;;;11.40;1.00;11.70;100953.00;;;;5001728;28;20979;-77
2022/03/12 10:18:09;;;;;;;10.30;6.73;;;11.60;1.00;11.80;100940.00;;;;5002181;28;21025;-78
2022/03/12 10:20:39;;;;;;;7.33;6.20;;;11.70;1.00;11.90;100955.00;;;;5002472;28;20462;-77
2022/03/12 10:23:10;;;;;;;7.33;6.60;;;11.80;1.00;12.00;100945.00;;;;5016482;28;20514;-78
2022/03/12 10:25:39;;;;;;;6.77;6.07;;;11.90;1.00;12.10;100945.00;;;;5006060;28;20450;-77
2022/03/12 10:28:08;;;;;;;8.93;6.70;;;12.00;1.00;12.10;100929.00;;;;5000137;28;20553;-78
2022/03/12 10:30:36;;;;;;;9.77;7.13;;;12.00;1.00;12.30;100949.00;;;;5003830;28;21042;-78
2022/03/12 10:33:06;;;;;;;7.37;6.67;;;12.20;1.00;12.30;100952.00;;;;4999427;28;20546;-79
2022/03/12 10:35:37;;;;;;;8.17;7.33;;;12.20;1.00;12.30;100936.00;;;;4998050;28;20457;-81
2022/03/12 10:38:12;;;;;;;8.30;7.13;;;12.20;1.00;12.30;100927.00;;;;4997712;28;20875;-79
2022/03/12 10:40:41;;;;;;;7.70;6.00;;;12.30;1.00;12.50;100938.00;;;;5001900;28;20441;-78
2022/03/12 10:43:14;;;;;;;7.10;6.40;;;12.40;1.00;12.60;100934.00;;;;4997844;28;20972;-77
2022/03/12 10:45:46;;;;;;;7.87;6.70;;;12.50;1.00;12.60;100929.00;;;;4997536;28;20554;-79
2022/03/12 10:48:19;;;;;;;7.37;6.67;;;12.50;1.00;12.70;100928.00;;;;4998690;28;20510;-77
2022/03/12 10:50:51;;;;;;;9.20;6.30;;;12.50;1.00;12.80;100928.00;;;;5015685;28;20482;-78
2022/03/12 10:53:22;;;;;;;9.10;7.77;;;12.90;1.00;12.90;100930.00;;;;5004494;28;20494;-77
2022/03/12 10:55:51;;;;;;;8.50;7.10;;;12.80;1.00;13.00;100915.00;;;;4999587;28;20482;-79
2022/03/12 10:58:24;;;;;;;7.53;6.70;;;12.90;1.00;13.10;100925.00;;;;5015754;28;20465;-77
2022/03/12 11:00:54;;;;;;;7.90;7.07;;;13.00;1.00;13.20;100941.00;;;;5000379;28;20460;-77
2022/03/12 11:03:28;;;;;;;8.17;7.10;;;13.10;1.00;13.10;100930.00;;;;5000471;28;20469;-80
2022/03/12 11:05:57;;;;;;;8.83;7.63;;;13.00;1.00;13.20;100918.00;;;;5011111;28;20478;-77
2022/03/12 11:08:27;;;;;;;7.70;6.60;;;13.10;1.00;13.20;100931.00;;;;5019654;28;20470;-78
2022/03/12 11:11:11;;;;;;;9.83;7.80;;;13.20;1.00;13.10;100848.00;;;;5028741;28;20460;-79
2022/03/12 11:13:47;;;;;;;6.90;6.20;;;13.10;1.00;13.10;100896.00;;;;5023952;28;20449;-78
2022/03/12 11:16:22;;;;;;;8.33;7.00;;;13.10;1.00;13.30;100888.00;;;;5006874;28;20494;-80
2022/03/12 11:19:06;;;;;;;9.77;7.17;;;13.10;1.00;13.40;100907.00;;;;5006530;28;20469;-80
2022/03/12 11:21:42;;;;;;;11.03;7.27;;;13.30;1.00;13.60;100912.00;;;;5001165;28;20513;-78